Historyczne dane pomiarowe

Dodano dane terminowe – wersja testowa.

Dane z okresu 1951-2019

Wersja bazy: 1.34 [2019-03-16, lista zmian], aktualizacja planowana na 2019-04-15

Dane meteo z obszaru Polski uzyskane na podstawie danych udostępnionych przez Instytut Meteorologii i Gospodarki Wodnej – Państwowy Instytut Badawczy.

 

Wybierz Datę:    

       

TemperaturaWilgotnośćZachmurzenieWiatrCiśnienieWidzialnośćZjawiska
 Data    tng td wb rh cc ccl cl cm ch dir g1 g2 mslp ppp      
1999-07-13 00:00:00 13.8--- 12.1 12.889wxwxwx1wx--1016.7 994.5 0.0---wx
1999-07-13 01:00:00 13.1--- 11.5 12.290wxwxwx1wx--1016.3 994.0----wx
1999-07-13 02:00:00 14.0--- 12.1 12.988wxwxwx2wx--1015.9 993.7----wx
1999-07-13 03:00:00 15.2--- 12.8 13.886wxwxwx2wx--1015.8 993.7----wx
1999-07-13 04:00:00 17.0--- 13.7 15.081wxwxwx1wx--1015.1 993.2----wx
1999-07-13 05:00:00 18.2--- 14.8 16.181wxwxwx1wx--1014.8 993.0----wx
1999-07-13 06:00:00 20.6--- 14.8 17.070wxwxwx2wx--1014.2 992.5 0.0---wx
1999-07-13 07:00:00 23.8--- 15.3 18.459wxwxwx2wx--1013.6 992.2----wx
1999-07-13 08:00:00 25.2--- 13.7 18.049wxwxwx3wx--1013.2 991.9----wx
1999-07-13 09:00:00 27.0--- 14.0 18.845wxwxwxwx5wx--1012.8 991.6----wx
1999-07-13 10:00:00 27.6--- 13.2 18.641wxwxwxwx5wx--1012.1 991.0----wx
1999-07-13 11:00:00 28.0--- 12.5 18.438wxwxwxwx5wx--1011.6 990.5----wx
1999-07-13 12:00:00 28.2--- 11.9 18.237wxwxwx4wx--1010.8 989.8 0.0---wx
1999-07-13 13:00:00 29.0--- 11.8 18.435wxwxwx5wx--1010.1 989.1----wx
1999-07-13 14:00:00 29.2--- 12.1 18.635wxwxwx4wx--1009.4 988.5----wx
1999-07-13 15:00:00 28.0--- 13.8 19.042wxwxwxwx3wx--1008.8 987.8----wx
1999-07-13 16:00:00 27.0--- 13.6 18.644wxwxwxwx3wx--1008.8 987.7----wx
1999-07-13 17:00:00 26.4--- 12.8 18.043wxwxwxwx2wx--1008.4 987.3----wx
1999-07-13 18:00:00 25.4--- 13.9 18.249wxwxwx2wx--1008.1 986.9 0.0---wx
1999-07-13 19:00:00 23.4--- 14.9 18.059wxwxwx2wx--1008.0 986.7----wx
1999-07-13 20:00:00 21.2--- 13.4 16.461wxwxwx2wx--1008.0 986.5----wx
1999-07-13 21:00:00 19.0--- 13.0 15.468wxwxwx1wx--1007.9 986.3----wx
1999-07-13 22:00:00 18.4--- 13.5 15.473wxwxwx2wx--1007.7 986.0----wx
1999-07-13 23:00:00 16.6--- 14.3 15.286wxwxwx2wx--1007.5 985.7----wx

 

Źródłem pochodzenia danych jest Instytut Meteorologii i Gospodarki Wodnej – Państwowy Instytut Badawczy. Dane Instytutu Meteorologii i Gospodarki Wodnej – Państwowego Instytutu Badawczego zostały przetworzone.

Dane źródłowe można odnaleźć na stronie https://dane.imgw.pl